Time;durP1;ratioP1;P1;durP2;ratioP2;P2;SDS_P1;SDS_P2;PMS_P1;PMS_P2;Temp;Humidity;BMP_temperature;BMP_pressure;BME280_temperature;BME280_humidity;BME280_pressure;Samples;Min_cycle;Max_cycle;Signal;HPM_P1;HPM_P2
2023/12/07 09:12:58;;;;;;;37.55;21.73;;;;;;;;;;7233239;23;20062;-93
2023/12/07 09:19:17;;;;;;;28.48;20.05;;;;;;;;;;6090056;28;20056;-92
2023/12/07 09:22:19;;;;;;;27.15;17.80;;;;;;;;;;6091057;29;20079;-96
2023/12/07 09:25:30;;;;;;;24.92;17.08;;;;;;;;;;6089670;29;20230;-94
2023/12/07 09:28:34;;;;;;;27.45;17.10;;;;;;;;;;6088504;29;20353;-94
2023/12/07 09:31:37;;;;;;;25.08;16.30;;;;;;;;;;6085756;29;20334;-94
2023/12/07 09:34:41;;;;;;;22.48;16.13;;;;;;;;;;6082853;29;20075;-94
2023/12/07 09:37:43;;;;;;;20.95;14.75;;;;;;;;;;6086495;29;20053;-94
2023/12/07 09:40:55;;;;;;;23.75;15.50;;;;;;;;;;6089747;29;20100;-94
2023/12/07 09:44:00;;;;;;;23.20;14.80;;;;;;;;;;6087872;29;20053;-94
2023/12/07 09:47:04;;;;;;;19.30;14.10;;;;;;;;;;6091844;29;20064;-94
2023/12/07 09:50:08;;;;;;;19.23;14.02;;;;;;;;;;6082399;29;20064;-95
2023/12/07 09:53:30;;;;;;;20.23;14.27;;;;;;;;;;6085543;29;20124;-95
2023/12/07 09:56:32;;;;;;;20.73;14.35;;;;;;;;;;6086176;29;20057;-94
2023/12/07 09:59:36;;;;;;;24.92;16.00;;;;;;;;;;6089397;29;20048;-94
2023/12/07 10:02:45;;;;;;;22.55;16.10;;;;;;;;;;6078962;29;20057;-96
2023/12/07 10:05:57;;;;;;;26.65;16.48;;;;;;;;;;6042017;29;20192;-94
2023/12/07 10:09:04;;;;;;;24.25;16.42;;;;;;;;;;6060476;29;20061;-91
2023/12/07 10:12:07;;;;;;;26.88;16.45;;;;;;;;;;6070941;29;20075;-91
2023/12/07 10:15:13;;;;;;;26.25;15.75;;;;;;;;;;6083482;29;20060;-92
2023/12/07 10:18:24;;;;;;;22.63;16.25;;;;;;;;;;6083847;28;20146;-91
2023/12/07 10:21:33;;;;;;;19.23;14.93;;;;;;;;;;6080853;29;20356;-92
2023/12/07 10:24:35;;;;;;;21.20;13.38;;;;;;;;;;6082376;28;20052;-91
2023/12/07 10:27:38;;;;;;;23.35;14.73;;;;;;;;;;6081863;29;20056;-95
2023/12/07 10:30:45;;;;;;;24.77;14.50;;;;;;;;;;6081692;28;20116;-92
2023/12/07 10:33:50;;;;;;;18.80;13.20;;;;;;;;;;6081048;29;20500;-91
2023/12/07 10:36:55;;;;;;;21.05;15.13;;;;;;;;;;6065720;29;20056;-96
2023/12/07 10:39:58;;;;;;;23.35;14.80;;;;;;;;;;6065747;29;20052;-93
2023/12/07 10:43:00;;;;;;;25.10;13.63;;;;;;;;;;6067012;29;20053;-93
2023/12/07 10:46:05;;;;;;;21.48;15.32;;;;;;;;;;6080214;29;20227;-94
2023/12/07 10:49:09;;;;;;;21.27;15.15;;;;;;;;;;6079181;29;20092;-92
2023/12/07 10:52:15;;;;;;;22.30;14.95;;;;;;;;;;6084155;29;20057;-91
2023/12/07 10:55:22;;;;;;;24.75;15.02;;;;;;;;;;6080881;29;20111;-93
2023/12/07 10:58:26;;;;;;;20.83;14.00;;;;;;;;;;6077732;29;20061;-94
2023/12/07 11:01:28;;;;;;;21.15;14.70;;;;;;;;;;6083389;29;20525;-94
2023/12/07 11:04:35;;;;;;;17.83;13.50;;;;;;;;;;6077996;29;20112;-92
2023/12/07 11:07:52;;;;;;;19.60;13.10;;;;;;;;;;6059013;29;20072;-94
2023/12/07 11:11:14;;;;;;;19.05;13.13;;;;;;;;;;6076811;29;20443;-94
2023/12/07 11:14:18;;;;;;;19.50;12.73;;;;;;;;;;6064988;29;20053;-94
2023/12/07 11:17:24;;;;;;;17.27;11.70;;;;;;;;;;6067685;29;20053;-94
2023/12/07 11:20:44;;;;;;;13.60;11.38;;;;;;;;;;6061295;29;20045;-95
2023/12/07 11:24:04;;;;;;;13.57;10.15;;;;;;;;;;6060255;29;20089;-94
2023/12/07 11:27:06;;;;;;;;;;;;;;;;;;6059165;29;20064;-93
2023/12/07 11:30:11;;;;;;;16.60;10.98;;;;;;;;;;6084114;29;19926;-93
2023/12/07 11:33:16;;;;;;;14.00;10.23;;;;;;;;;;6072146;29;20046;-93
2023/12/07 11:36:22;;;;;;;13.38;10.60;;;;;;;;;;6065000;29;20057;-92
2023/12/07 11:39:29;;;;;;;16.30;10.75;;;;;;;;;;6073727;29;20041;-91
2023/12/07 11:42:33;;;;;;;15.00;9.85;;;;;;;;;;6082164;29;20083;-92
2023/12/07 11:45:48;;;;;;;15.82;9.75;;;;;;;;;;6087421;29;20048;-92
2023/12/07 11:48:52;;;;;;;15.75;9.65;;;;;;;;;;6079732;29;20093;-91
2023/12/07 11:52:02;;;;;;;12.15;9.93;;;;;;;;;;6082322;29;21291;-92
2023/12/07 11:55:08;;;;;;;11.25;8.38;;;;;;;;;;6081991;29;20057;-92
2023/12/07 11:58:20;;;;;;;14.05;9.32;;;;;;;;;;6078298;29;20048;-91
2023/12/07 12:01:30;;;;;;;12.55;9.63;;;;;;;;;;6080733;29;20074;-93
2023/12/07 12:04:34;;;;;;;11.27;8.07;;;;;;;;;;6078956;29;20067;-90
2023/12/07 12:07:44;;;;;;;14.43;8.85;;;;;;;;;;6081164;29;20049;-90
2023/12/07 12:10:49;;;;;;;15.63;10.55;;;;;;;;;;6070587;29;20091;-90
2023/12/07 12:13:52;;;;;;;13.90;10.25;;;;;;;;;;6059840;29;20112;-92
2023/12/07 12:16:56;;;;;;;12.18;9.50;;;;;;;;;;6069387;29;20337;-88
2023/12/07 12:19:58;;;;;;;16.08;8.68;;;;;;;;;;6061379;29;20076;-93
2023/12/07 12:23:05;;;;;;;11.20;8.60;;;;;;;;;;6078149;29;20063;-92
2023/12/07 12:26:13;;;;;;;10.93;7.20;;;;;;;;;;6074783;29;20056;-90
2023/12/07 12:29:17;;;;;;;10.10;6.90;;;;;;;;;;6080233;29;20053;-90
2023/12/07 12:32:22;;;;;;;10.90;8.02;;;;;;;;;;6080227;29;20397;-91
2023/12/07 12:35:30;;;;;;;11.35;7.43;;;;;;;;;;6084336;29;20120;-91
2023/12/07 12:38:41;;;;;;;9.98;8.10;;;;;;;;;;6078909;29;20072;-90
2023/12/07 12:41:45;;;;;;;9.68;8.18;;;;;;;;;;6078251;29;20077;-90
2023/12/07 12:44:51;;;;;;;11.93;8.15;;;;;;;;;;6081936;28;20068;-89
2023/12/07 12:48:15;;;;;;;12.25;8.88;;;;;;;;;;6055464;29;20057;-94
2023/12/07 12:51:19;;;;;;;10.57;8.10;;;;;;;;;;6058656;29;20093;-88
2023/12/07 12:54:34;;;;;;;11.15;9.15;;;;;;;;;;6065290;29;20120;-91
2023/12/07 12:57:39;;;;;;;10.80;8.40;;;;;;;;;;6072487;29;20333;-90
2023/12/07 13:00:44;;;;;;;14.68;10.77;;;;;;;;;;6068307;29;20070;-90
2023/12/07 13:03:46;;;;;;;15.73;10.68;;;;;;;;;;6072091;29;20287;-91
2023/12/07 13:06:55;;;;;;;13.43;10.90;;;;;;;;;;6064631;29;20278;-91
2023/12/07 13:10:04;;;;;;;18.27;12.23;;;;;;;;;;6062002;29;20254;-89
2023/12/07 13:13:10;;;;;;;20.27;12.68;;;;;;;;;;6057224;29;20284;-92
2023/12/07 13:16:14;;;;;;;16.83;12.63;;;;;;;;;;6065510;29;20060;-92
2023/12/07 13:19:19;;;;;;;14.60;11.82;;;;;;;;;;6077436;28;20068;-90
2023/12/07 13:22:25;;;;;;;17.65;12.90;;;;;;;;;;6078424;29;20330;-89
2023/12/07 13:25:29;;;;;;;16.83;13.38;;;;;;;;;;6079873;29;20048;-91
2023/12/07 13:28:33;;;;;;;16.50;13.15;;;;;;;;;;6080601;29;20056;-86
2023/12/07 13:31:35;;;;;;;;;;;;;;;;;;6084449;29;20052;-90
2023/12/07 13:34:38;;;;;;;20.95;14.02;;;;;;;;;;6079572;29;20262;-92
2023/12/07 13:37:42;;;;;;;18.70;13.05;;;;;;;;;;6079122;29;20060;-90
2023/12/07 13:40:46;;;;;;;15.85;12.93;;;;;;;;;;6078135;29;20072;-94
2023/12/07 13:43:50;;;;;;;19.05;14.45;;;;;;;;;;6079210;29;20060;-91
2023/12/07 13:46:56;;;;;;;;;;;;;;;;;;6080654;28;20056;-92
2023/12/07 13:49:59;;;;;;;19.58;14.90;;;;;;;;;;6078481;29;20196;-94
2023/12/07 13:53:03;;;;;;;22.40;15.25;;;;;;;;;;6063387;29;20049;-89
2023/12/07 13:56:09;;;;;;;19.50;13.95;;;;;;;;;;6073745;29;20288;-91
2023/12/07 13:59:13;;;;;;;19.98;15.23;;;;;;;;;;6085480;29;20396;-90
2023/12/07 14:02:16;;;;;;;22.30;15.52;;;;;;;;;;6081931;29;20052;-91
2023/12/07 14:05:19;;;;;;;21.70;16.10;;;;;;;;;;6082862;29;20057;-90
2023/12/07 14:08:23;;;;;;;24.63;16.80;;;;;;;;;;6084991;29;20107;-90
2023/12/07 14:11:26;;;;;;;21.80;15.75;;;;;;;;;;6085390;29;20056;-93
2023/12/07 14:14:28;;;;;;;20.33;15.73;;;;;;;;;;6082212;29;20063;-95
2023/12/07 14:17:37;;;;;;;23.15;16.02;;;;;;;;;;6092130;29;20053;-95
2023/12/07 14:20:44;;;;;;;24.20;17.13;;;;;;;;;;6069045;29;20061;-94
2023/12/07 14:23:46;;;;;;;24.05;16.35;;;;;;;;;;6085740;29;20104;-93
2023/12/07 14:26:55;;;;;;;21.95;16.33;;;;;;;;;;6086111;29;20056;-95
2023/12/07 14:30:01;;;;;;;20.50;16.08;;;;;;;;;;6086081;29;20175;-93
2023/12/07 14:33:03;;;;;;;22.20;15.52;;;;;;;;;;6079541;29;20068;-92
2023/12/07 14:36:07;;;;;;;23.10;15.88;;;;;;;;;;6072231;29;20061;-92
2023/12/07 14:42:32;;;;;;;21.90;16.35;;;;;;;;;;6082008;29;20059;-93
2023/12/07 14:45:38;;;;;;;23.05;15.80;;;;;;;;;;6086573;29;20356;-92
2023/12/07 14:48:41;;;;;;;20.60;15.55;;;;;;;;;;6087268;29;20060;-91
2023/12/07 14:51:43;;;;;;;21.13;16.67;;;;;;;;;;6081127;29;20079;-92
2023/12/07 14:54:45;;;;;;;21.77;16.13;;;;;;;;;;6071873;29;20049;-93
2023/12/07 15:01:09;;;;;;;24.15;17.17;;;;;;;;;;6075127;29;20045;-93
2023/12/07 15:04:15;;;;;;;25.40;17.35;;;;;;;;;;6069668;29;20060;-94
2023/12/07 15:07:18;;;;;;;22.92;17.15;;;;;;;;;;6083012;29;20069;-94
2023/12/07 15:10:20;;;;;;;23.20;16.60;;;;;;;;;;6089667;29;20397;-94
2023/12/07 15:16:46;;;;;;;24.67;16.50;;;;;;;;;;6068256;29;20049;-94
2023/12/07 15:19:49;;;;;;;25.90;17.60;;;;;;;;;;6098103;28;20056;-94
2023/12/07 15:22:56;;;;;;;28.40;18.15;;;;;;;;;;6093519;29;20048;-94
2023/12/07 15:26:04;;;;;;;23.50;17.15;;;;;;;;;;6079511;29;20282;-95
2023/12/07 15:29:15;;;;;;;26.70;17.52;;;;;;;;;;6079137;29;20053;-96
2023/12/07 15:32:25;;;;;;;30.27;17.35;;;;;;;;;;6044582;29;20071;-96
2023/12/07 15:35:53;;;;;;;23.98;16.17;;;;;;;;;;5993817;29;20054;-95
2023/12/07 15:38:57;;;;;;;25.73;17.23;;;;;;;;;;5939334;29;20060;-94
2023/12/07 15:42:01;;;;;;;25.33;16.52;;;;;;;;;;5976345;29;20060;-94
2023/12/07 15:48:28;;;;;;;23.02;16.48;;;;;;;;;;6082585;28;19919;-95
2023/12/07 15:54:54;;;;;;;21.98;16.25;;;;;;;;;;6058389;28;20051;-94
2023/12/07 15:57:59;;;;;;;24.25;17.08;;;;;;;;;;6086375;29;20068;-94
2023/12/07 16:01:03;;;;;;;23.65;16.80;;;;;;;;;;6089788;28;20256;-94
2023/12/07 16:04:39;;;;;;;25.20;16.85;;;;;;;;;;6091262;29;20052;-96
2023/12/07 16:07:48;;;;;;;24.52;16.27;;;;;;;;;;6063481;29;20076;-94
2023/12/07 16:10:53;;;;;;;22.05;16.65;;;;;;;;;;6090364;28;20044;-95
2023/12/07 16:13:58;;;;;;;23.52;16.02;;;;;;;;;;6087537;29;20070;-96
2023/12/07 16:17:31;;;;;;;29.77;16.67;;;;;;;;;;6088753;28;20051;-96
2023/12/07 16:24:36;;;;;;;24.45;15.82;;;;;;;;;;6089821;29;20033;-96
2023/12/07 16:31:55;;;;;;;23.05;15.30;;;;;;;;;;6095243;29;20250;-95
2023/12/07 16:35:36;;;;;;;20.73;15.23;;;;;;;;;;6094674;29;20048;-95
2023/12/07 16:38:47;;;;;;;24.02;15.25;;;;;;;;;;6090235;29;20309;-96
2023/12/07 16:41:54;;;;;;;22.30;15.48;;;;;;;;;;6068276;29;20074;-96
2023/12/07 16:45:01;;;;;;;21.27;15.02;;;;;;;;;;6086604;29;20063;-96
2023/12/07 16:48:05;;;;;;;21.00;14.63;;;;;;;;;;6068823;29;20064;-96
2023/12/07 16:51:10;;;;;;;20.73;13.90;;;;;;;;;;6071456;29;20049;-96
2023/12/07 16:57:32;;;;;;;23.15;14.60;;;;;;;;;;6045728;29;20349;-96
2023/12/07 17:00:34;;;;;;;20.05;13.85;;;;;;;;;;6074390;29;20049;-96
2023/12/07 17:03:38;;;;;;;20.10;13.93;;;;;;;;;;6077251;29;20070;-96
2023/12/07 17:06:40;;;;;;;20.00;13.80;;;;;;;;;;6061179;29;20085;-94
2023/12/07 17:09:48;;;;;;;20.67;13.63;;;;;;;;;;6076545;28;20064;-94
2023/12/07 17:12:50;;;;;;;20.58;13.65;;;;;;;;;;6075545;29;20127;-95
2023/12/07 17:15:56;;;;;;;23.33;14.98;;;;;;;;;;6081651;29;20286;-94
2023/12/07 17:19:02;;;;;;;18.58;13.25;;;;;;;;;;6082005;28;20048;-94
2023/12/07 17:22:07;;;;;;;21.60;13.88;;;;;;;;;;6078452;29;20063;-96
2023/12/07 17:25:11;;;;;;;18.67;12.80;;;;;;;;;;6078812;29;20272;-95
2023/12/07 17:28:15;;;;;;;23.92;12.63;;;;;;;;;;6072242;29;20120;-95
2023/12/07 17:31:19;;;;;;;19.88;13.65;;;;;;;;;;6056405;29;20319;-94
2023/12/07 17:34:21;;;;;;;24.65;13.98;;;;;;;;;;6065229;29;20061;-94
2023/12/07 17:40:42;;;;;;;21.15;12.35;;;;;;;;;;6067442;29;20041;-95
2023/12/07 17:43:44;;;;;;;23.30;13.40;;;;;;;;;;6072817;29;20057;-96
2023/12/07 17:46:49;;;;;;;25.75;14.55;;;;;;;;;;6058517;29;20116;-96
2023/12/07 17:49:53;;;;;;;25.67;15.15;;;;;;;;;;6070442;29;20559;-94
2023/12/07 17:52:57;;;;;;;24.02;15.50;;;;;;;;;;6063984;29;20065;-95
2023/12/07 17:56:03;;;;;;;24.83;15.77;;;;;;;;;;6057226;29;20120;-96
2023/12/07 17:59:07;;;;;;;21.27;15.73;;;;;;;;;;6099770;23;20470;-96
2023/12/07 18:02:15;;;;;;;26.33;15.43;;;;;;;;;;6166212;28;20062;-94
2023/12/07 18:05:37;;;;;;;23.85;15.98;;;;;;;;;;6232073;23;20244;-96
2023/12/07 18:08:46;;;;;;;25.50;16.45;;;;;;;;;;6192004;28;20062;-96
2023/12/07 18:15:58;;;;;;;24.15;15.43;;;;;;;;;;6672982;23;20101;-96
2023/12/07 18:35:43;;;;;;;26.20;17.00;;;;;;;;;;6471668;23;20077;-96
2023/12/07 18:38:48;;;;;;;27.50;17.40;;;;;;;;;;6196743;28;20098;-96
2023/12/07 18:41:54;;;;;;;25.10;16.77;;;;;;;;;;6197542;28;20066;-96
2023/12/07 18:59:47;;;;;;;25.17;16.13;;;;;;;;;;6148208;28;20118;-96
2023/12/07 19:12:57;;;;;;;26.13;16.73;;;;;;;;;;6073875;29;20138;-96
2023/12/07 19:37:13;;;;;;;27.00;17.27;;;;;;;;;;6093928;29;20069;-96
2023/12/07 19:43:29;;;;;;;35.72;17.65;;;;;;;;;;6176722;28;20130;-96
2023/12/07 20:11:38;;;;;;;35.10;20.60;;;;;;;;;;6159399;28;20050;-96
2023/12/07 20:14:44;;;;;;;35.13;20.80;;;;;;;;;;6115383;29;20176;-96
2023/12/07 20:21:16;;;;;;;34.08;20.77;;;;;;;;;;6034018;29;20080;-96
2023/12/07 20:27:41;;;;;;;33.53;20.35;;;;;;;;;;5997889;29;20334;-96
2023/12/07 20:37:32;;;;;;;32.08;19.55;;;;;;;;;;6053644;29;20117;-96
2023/12/07 20:40:34;;;;;;;32.90;19.38;;;;;;;;;;6048215;29;20071;-96
2023/12/07 20:54:01;;;;;;;32.92;18.70;;;;;;;;;;6023244;29;20049;-96
2023/12/07 20:57:04;;;;;;;32.72;20.38;;;;;;;;;;6067336;29;20052;-96
2023/12/07 21:00:08;;;;;;;31.77;19.23;;;;;;;;;;6111219;29;20183;-96
2023/12/07 21:03:32;;;;;;;34.03;19.77;;;;;;;;;;6147253;28;20043;-96
2023/12/07 21:30:50;;;;;;;33.45;19.73;;;;;;;;;;7101690;23;20030;-96
2023/12/07 22:08:50;;;;;;;29.52;18.15;;;;;;;;;;6180908;28;20039;-96
2023/12/07 22:33:50;;;;;;;29.65;17.50;;;;;;;;;;6026069;29;20052;-96
2023/12/07 22:36:55;;;;;;;29.00;18.73;;;;;;;;;;6086107;29;20346;-96
2023/12/07 22:40:01;;;;;;;31.40;19.20;;;;;;;;;;6087464;29;20065;-97
2023/12/07 22:43:03;;;;;;;32.50;19.00;;;;;;;;;;6087083;29;20395;-94
2023/12/07 22:46:08;;;;;;;28.77;18.60;;;;;;;;;;6088534;29;20052;-96
2023/12/07 22:52:28;;;;;;;31.15;18.10;;;;;;;;;;6074832;29;20056;-96
2023/12/07 22:55:32;;;;;;;32.28;18.63;;;;;;;;;;6072638;29;20063;-96
2023/12/07 22:58:33;;;;;;;;;;;;;;;;;;6086579;29;20241;-96
2023/12/07 23:01:36;;;;;;;25.75;17.02;;;;;;;;;;6087684;29;20070;-96
2023/12/07 23:07:56;;;;;;;24.48;16.00;;;;;;;;;;6113940;29;20083;-96
2023/12/07 23:10:58;;;;;;;29.75;16.13;;;;;;;;;;6136460;29;20059;-96
2023/12/07 23:14:06;;;;;;;27.73;16.40;;;;;;;;;;6137673;29;20462;-96
2023/12/07 23:29:12;;;;;;;330.98;133.40;;;;;;;;;;6113738;29;20043;-96
2023/12/07 23:32:15;;;;;;;104.45;44.75;;;;;;;;;;6135735;29;20362;-96
2023/12/07 23:35:17;;;;;;;71.80;30.80;;;;;;;;;;6135049;29;20119;-96
2023/12/07 23:38:19;;;;;;;80.63;36.05;;;;;;;;;;6137098;29;20062;-96
2023/12/07 23:41:24;;;;;;;29.92;17.95;;;;;;;;;;6133353;29;20071;-96
2023/12/07 23:44:28;;;;;;;21.48;13.98;;;;;;;;;;6126824;29;20146;-96
2023/12/07 23:47:31;;;;;;;22.15;13.02;;;;;;;;;;6114318;29;20047;-96
2023/12/07 23:50:32;;;;;;;22.33;12.50;;;;;;;;;;6140174;28;20098;-96
2023/12/07 23:53:35;;;;;;;23.10;13.57;;;;;;;;;;6165712;28;20051;-97
